Time;durP1;ratioP1;P1;durP2;ratioP2;P2;SDS_P1;SDS_P2;PMS_P1;PMS_P2;Temp;Humidity;BMP_temperature;BMP_pressure;BME280_temperature;BME280_humidity;BME280_pressure;Samples;Min_cycle;Max_cycle;Signal;HPM_P1;HPM_P2
2022/10/08 00:00:36;;;;;;;;;;;;;;;;;;4332484;33;20028;-83
2022/10/08 00:03:01;;;;;;;12.10;3.37;;;;;;;;;;4332712;33;19938;-83
2022/10/08 00:05:26;;;;;;;8.30;2.20;;;;;;;;;;4332089;33;20027;-83
2022/10/08 00:07:53;;;;;;;12.20;2.95;;;;;;;;;;4345512;33;20027;-83
2022/10/08 00:10:20;;;;;;;8.27;2.75;;;;;;;;;;4331961;33;20047;-83
2022/10/08 00:12:46;;;;;;;11.45;2.72;;;;;;;;;;4331782;33;20046;-83
2022/10/08 00:15:11;;;;;;;;;;;;;;;;;;4332338;33;20020;-83
2022/10/08 00:17:39;;;;;;;11.60;3.10;;;;;;;;;;4332147;33;19993;-83
2022/10/08 00:20:04;;;;;;;16.92;2.55;;;;;;;;;;4345820;33;20067;-83
2022/10/08 00:22:30;;;;;;;;;;;;;;;;;;4345629;33;20099;-83
2022/10/08 00:24:56;;;;;;;10.70;2.72;;;;;;;;;;4331920;33;19939;-83
2022/10/08 00:27:25;;;;;;;7.62;2.50;;;;;;;;;;4345400;33;20433;-83
2022/10/08 00:29:53;;;;;;;4.60;2.20;;;;;;;;;;4345295;33;20452;-83
2022/10/08 00:32:18;;;;;;;8.13;2.55;;;;;;;;;;4345690;33;20031;-83
2022/10/08 00:34:47;;;;;;;9.43;2.80;;;;;;;;;;4332325;33;20047;-83
2022/10/08 00:37:14;;;;;;;7.65;2.58;;;;;;;;;;4345652;33;20036;-83
2022/10/08 00:39:42;;;;;;;10.52;2.45;;;;;;;;;;4332447;33;20024;-83
2022/10/08 00:42:12;;;;;;;6.70;2.62;;;;;;;;;;4345250;33;20031;-83
2022/10/08 00:45:05;;;;;;;7.62;2.87;;;;;;;;;;4331706;33;20016;-83
2022/10/08 00:47:36;;;;;;;8.10;2.90;;;;;;;;;;4345064;33;20048;-83
2022/10/08 00:50:05;;;;;;;10.90;4.35;;;;;;;;;;4332261;33;20054;-83
2022/10/08 00:52:34;;;;;;;7.65;3.55;;;;;;;;;;4345258;33;20098;-83
2022/10/08 00:55:05;;;;;;;8.10;3.92;;;;;;;;;;4345028;33;20410;-83
2022/10/08 01:00:21;;;;;;;11.35;4.25;;;;;;;;;;4285010;33;20067;-84
2022/10/08 01:02:53;;;;;;;19.80;5.65;;;;;;;;;;4336408;33;20088;-86
2022/10/08 01:05:21;;;;;;;12.25;4.72;;;;;;;;;;4333039;33;20078;-85
2022/10/08 01:07:52;;;;;;;9.93;4.12;;;;;;;;;;4334608;33;20070;-85
2022/10/08 01:10:21;;;;;;;11.73;4.43;;;;;;;;;;4348486;33;20020;-85
2022/10/08 01:13:05;;;;;;;15.30;4.65;;;;;;;;;;4348704;33;20094;-84
2022/10/08 01:15:40;;;;;;;13.13;4.57;;;;;;;;;;4334442;33;20031;-84
2022/10/08 01:18:15;;;;;;;13.98;5.22;;;;;;;;;;4348237;33;20300;-85
2022/10/08 01:20:52;;;;;;;15.02;4.97;;;;;;;;;;4348426;33;20464;-84
2022/10/08 01:23:18;;;;;;;9.75;4.70;;;;;;;;;;4348025;33;20070;-85
2022/10/08 01:25:43;;;;;;;14.73;4.90;;;;;;;;;;4334486;33;20055;-84
2022/10/08 01:28:11;;;;;;;8.95;4.10;;;;;;;;;;4348508;33;20346;-84
2022/10/08 01:30:39;;;;;;;10.07;4.00;;;;;;;;;;4334924;33;20350;-84
2022/10/08 01:33:11;;;;;;;16.02;5.68;;;;;;;;;;4334535;33;20084;-84
2022/10/08 01:35:38;;;;;;;15.30;4.20;;;;;;;;;;4334178;33;20019;-84
2022/10/08 01:38:05;;;;;;;16.90;4.10;;;;;;;;;;4334062;33;20088;-84
2022/10/08 01:40:33;;;;;;;14.82;4.78;;;;;;;;;;4347431;33;20031;-84
2022/10/08 01:43:02;;;;;;;15.35;4.10;;;;;;;;;;4334592;33;20186;-84
2022/10/08 01:45:31;;;;;;;15.80;4.35;;;;;;;;;;4347460;33;20027;-84
2022/10/08 01:47:58;;;;;;;16.15;3.80;;;;;;;;;;4334239;33;20040;-84
2022/10/08 01:50:27;;;;;;;13.75;4.57;;;;;;;;;;4348273;33;20055;-85
2022/10/08 01:52:58;;;;;;;10.73;4.15;;;;;;;;;;4347428;33;20418;-84
2022/10/08 01:55:49;;;;;;;13.50;4.25;;;;;;;;;;4348117;33;20020;-84
2022/10/08 01:58:32;;;;;;;12.77;5.05;;;;;;;;;;4347634;33;20055;-84
2022/10/08 02:01:01;;;;;;;16.42;4.85;;;;;;;;;;4346700;33;20023;-84
2022/10/08 02:06:32;;;;;;;15.80;4.85;;;;;;;;;;4347792;33;20059;-84
2022/10/08 02:08:57;;;;;;;17.45;5.62;;;;;;;;;;4347312;33;20032;-84
2022/10/08 02:11:23;;;;;;;;;;;;;;;;;;4348451;33;20479;-84
2022/10/08 02:13:48;;;;;;;;;;;;;;;;;;4347419;33;19939;-83
2022/10/08 02:16:13;;;;;;;;;;;;;;;;;;4333770;33;19954;-83
2022/10/08 02:18:41;;;;;;;;;;;;;;;;;;4347039;33;19939;-83
2022/10/08 02:21:10;;;;;;;;;;;;;;;;;;4331664;33;19942;-83
2022/10/08 02:26:20;;;;;;;;;;;;;;;;;;4324202;33;19972;-83
2022/10/08 02:28:45;;;;;;;;;;;;;;;;;;4334195;33;20254;-83
2022/10/08 02:31:13;;;;;;;;;;;;;;;;;;4334040;33;20229;-84
2022/10/08 02:33:38;;;;;;;;;;;;;;;;;;4347536;33;19966;-83
2022/10/08 02:36:03;;;;;;;;;;;;;;;;;;4347277;33;19966;-83
2022/10/08 02:38:28;;;;;;;;;;;;;;;;;;4347621;33;19969;-83
2022/10/08 02:40:53;;;;;;;;;;;;;;;;;;4334010;33;19938;-83
2022/10/08 02:43:18;;;;;;;;;;;;;;;;;;4334747;33;19999;-83
2022/10/08 02:45:45;;;;;;;;;;;;;;;;;;4334176;33;20001;-85
2022/10/08 02:48:10;;;;;;;;;;;;;;;;;;4347748;33;19938;-85
2022/10/08 02:50:36;;;;;;;;;;;;;;;;;;4347891;33;19943;-85
2022/10/08 02:53:01;;;;;;;;;;;;;;;;;;4334192;33;20273;-84
2022/10/08 02:55:26;;;;;;;;;;;;;;;;;;4347564;33;19943;-85
2022/10/08 02:57:52;;;;;;;;;;;;;;;;;;4333961;33;19935;-85
2022/10/08 03:00:17;;;;;;;;;;;;;;;;;;4346731;33;19942;-85
2022/10/08 03:02:42;;;;;;;;;;;;;;;;;;4347032;33;19939;-85
2022/10/08 03:05:10;;;;;;;;;;;;;;;;;;4347372;33;19946;-85
2022/10/08 03:07:37;;;;;;;;;;;;;;;;;;4346696;33;20330;-85
2022/10/08 03:10:04;;;;;;;;;;;;;;;;;;4347025;33;20030;-85
2022/10/08 03:12:30;;;;;;;;;;;;;;;;;;4333492;33;19939;-85
2022/10/08 03:14:55;;;;;;;;;;;;;;;;;;4346986;33;20368;-85
2022/10/08 03:17:20;;;;;;;;;;;;;;;;;;4333122;33;20029;-85
2022/10/08 03:19:48;;;;;;;;;;;;;;;;;;4347246;33;19939;-85
2022/10/08 03:22:13;;;;;;;;;;;;;;;;;;4347239;33;19955;-84
2022/10/08 03:24:38;;;;;;;;;;;;;;;;;;4346499;33;20277;-84
2022/10/08 03:27:03;;;;;;;;;;;;;;;;;;4346664;33;19966;-84
2022/10/08 03:29:28;;;;;;;;;;;;;;;;;;4347134;33;19953;-84
2022/10/08 03:31:53;;;;;;;;;;;;;;;;;;4346896;33;19966;-84
2022/10/08 03:34:19;;;;;;;;;;;;;;;;;;4346430;33;19939;-84
2022/10/08 03:36:46;;;;;;;;;;;;;;;;;;4332905;33;19954;-83
2022/10/08 03:39:11;;;;;;;;;;;;;;;;;;4332463;33;20018;-86
2022/10/08 03:41:37;;;;;;;;;;;;;;;;;;4346207;33;20219;-86
2022/10/08 03:44:02;;;;;;;;;;;;;;;;;;4346507;33;19953;-85
2022/10/08 03:46:27;;;;;;;;;;;;;;;;;;4332709;33;19973;-85
2022/10/08 03:48:52;;;;;;;;;;;;;;;;;;4346223;33;20300;-86
2022/10/08 03:51:17;;;;;;;;;;;;;;;;;;4332720;33;19939;-86
2022/10/08 03:53:43;;;;;;;;;;;;;;;;;;4332912;33;20297;-86
2022/10/08 03:56:08;;;;;;;;;;;;;;;;;;4332500;33;19939;-86
2022/10/08 03:58:33;;;;;;;;;;;;;;;;;;4346495;33;19974;-85
2022/10/08 04:00:58;;;;;;;;;;;;;;;;;;4346049;33;19943;-85
2022/10/08 04:03:26;;;;;;;;;;;;;;;;;;4346375;33;20001;-85
2022/10/08 04:05:51;;;;;;;;;;;;;;;;;;4332549;33;20014;-85
2022/10/08 04:08:19;;;;;;;;;;;;;;;;;;4332422;33;20351;-85
2022/10/08 04:10:44;;;;;;;;;;;;;;;;;;4331518;33;19970;-85
2022/10/08 04:13:09;;;;;;;;;;;;;;;;;;4332487;33;20022;-84
2022/10/08 04:15:37;;;;;;;;;;;;;;;;;;4346227;33;19980;-84
2022/10/08 04:18:05;;;;;;;;;;;;;;;;;;4333047;33;19942;-85
2022/10/08 04:20:30;;;;;;;;;;;;;;;;;;4346152;33;19947;-85
2022/10/08 04:22:55;;;;;;;;;;;;;;;;;;4332822;33;19993;-85
2022/10/08 04:25:21;;;;;;;;;;;;;;;;;;4332822;33;19949;-85
2022/10/08 04:27:48;;;;;;;;;;;;;;;;;;4332058;33;19996;-84
2022/10/08 04:30:13;;;;;;;;;;;;;;;;;;4332156;33;19931;-85
2022/10/08 04:32:38;;;;;;;;;;;;;;;;;;4345776;33;19952;-85
2022/10/08 04:35:06;;;;;;;;;;;;;;;;;;4332363;33;19974;-85
2022/10/08 04:37:49;;;;;;;;;;;;;;;;;;4345506;33;19967;-85
2022/10/08 04:40:48;;;;;;;;;;;;;;;;;;4345201;33;20301;-85
2022/10/08 04:43:06;;;;;;;;;;;;;;;;;;4343737;33;19938;-85
2022/10/08 04:45:31;;;;;;;;;;;;;;;;;;4346240;33;20215;-84
2022/10/08 04:47:56;;;;;;;;;;;;;;;;;;4332118;33;20254;-84
2022/10/08 04:50:22;;;;;;;;;;;;;;;;;;4332062;33;19977;-84
2022/10/08 04:52:47;;;;;;;;;;;;;;;;;;4333038;33;19939;-84
2022/10/08 04:55:12;;;;;;;;;;;;;;;;;;4332146;33;19939;-84
2022/10/08 04:57:38;;;;;;;;;;;;;;;;;;4345943;33;20299;-83
2022/10/08 05:00:06;;;;;;;;;;;;;;;;;;4345398;33;19980;-83
2022/10/08 05:02:31;;;;;;;;;;;;;;;;;;4331932;33;20306;-83
2022/10/08 05:04:56;;;;;;;;;;;;;;;;;;4332566;33;19938;-82
2022/10/08 05:07:23;;;;;;;;;;;;;;;;;;4332062;33;19939;-83
2022/10/08 05:09:48;;;;;;;;;;;;;;;;;;4332182;33;19935;-83
2022/10/08 05:12:13;;;;;;;;;;;;;;;;;;4346084;33;19953;-82
2022/10/08 05:14:38;;;;;;;;;;;;;;;;;;4345632;33;19982;-82
2022/10/08 05:17:03;;;;;;;;;;;;;;;;;;4345367;33;19988;-82
2022/10/08 05:19:28;;;;;;;;;;;;;;;;;;4345711;33;19952;-82
2022/10/08 05:21:54;;;;;;;;;;;;;;;;;;4332149;33;19986;-82
2022/10/08 05:24:19;;;;;;;;;;;;;;;;;;4331777;33;19993;-82
2022/10/08 05:26:44;;;;;;;;;;;;;;;;;;4345487;33;20296;-82
2022/10/08 05:29:09;;;;;;;;;;;;;;;;;;4345439;33;19972;-82
2022/10/08 05:31:34;;;;;;;;;;;;;;;;;;4345428;33;19980;-82
2022/10/08 05:34:00;;;;;;;;;;;;;;;;;;4331812;33;19939;-82
2022/10/08 05:36:25;;;;;;;;;;;;;;;;;;4331891;33;19939;-82
2022/10/08 05:38:50;;;;;;;;;;;;;;;;;;4331678;33;19965;-82
2022/10/08 05:41:15;;;;;;;;;;;;;;;;;;4331813;33;19957;-82
2022/10/08 05:43:49;;;;;;;;;;;;;;;;;;4331704;33;19943;-82
2022/10/08 05:46:18;;;;;;;;;;;;;;;;;;4332290;33;19974;-82
2022/10/08 05:48:43;;;;;;;;;;;;;;;;;;4331653;33;19963;-82
2022/10/08 05:51:11;;;;;;;;;;;;;;;;;;4332026;33;20371;-82
2022/10/08 05:53:57;;;;;;;;;;;;;;;;;;4347062;33;19938;-81
2022/10/08 05:59:13;;;;;;;;;;;;;;;;;;4341476;33;19983;-81
2022/10/08 06:02:03;;;;;;;;;;;;;;;;;;;;;
2022/10/08 06:04:37;;;;;;;;;;;;;;;;;;4287186;33;20263;-81
2022/10/08 06:07:17;;;;;;;;;;;;;;;;;;4347321;33;19950;-81
2022/10/08 06:10:01;;;;;;;;;;;;;;;;;;;;;
2022/10/08 06:12:39;;;;;;;;;;;;;;;;;;;;;
2022/10/08 06:20:37;;;;;;;;;;;;;;;;;;4347663;33;20455;-81
2022/10/08 06:23:02;;;;;;;;;;;;;;;;;;4334116;33;19935;-82
2022/10/08 06:25:30;;;;;;;;;;;;;;;;;;4335696;33;19938;-82
2022/10/08 06:27:55;;;;;;;;;;;;;;;;;;4333683;33;19950;-81
2022/10/08 06:30:21;;;;;;;;;;;;;;;;;;4334055;33;19994;-81
2022/10/08 06:32:46;;;;;;;;;;;;;;;;;;4333587;33;19950;-82
2022/10/08 06:38:00;;;;;;;;;;;;;;;;;;4341568;33;19935;-81
2022/10/08 06:40:25;;;;;;;;;;;;;;;;;;4333584;33;20304;-81
2022/10/08 06:42:50;;;;;;;;;;;;;;;;;;4333612;33;19998;-82
2022/10/08 06:45:15;;;;;;;;;;;;;;;;;;4333638;33;20246;-81
2022/10/08 06:47:41;;;;;;;;;;;;;;;;;;4341892;33;19943;-82
2022/10/08 06:50:06;;;;;;;;;;;;;;;;;;4346781;33;20347;-82
2022/10/08 06:52:48;;;;;;;;;;;;;;;;;;4346875;33;19954;-81
2022/10/08 06:55:22;;;;;;;;;;;;;;;;;;4333655;33;20330;-83
2022/10/08 06:58:00;;;;;;;;;;;;;;;;;;;;;
2022/10/08 07:00:29;;;;;;;;;;;;;;;;;;4346642;33;19962;-82
2022/10/08 07:03:04;;;;;;;;;;;;;;;;;;4346553;33;20021;-82
2022/10/08 07:05:29;;;;;;;;;;;;;;;;;;4333522;33;19931;-81
2022/10/08 07:07:54;;;;;;;;;;;;;;;;;;4332114;33;20001;-81
2022/10/08 07:10:20;;;;;;;;;;;;;;;;;;4346875;33;19931;-81
2022/10/08 07:12:50;;;;;;;;;;;;;;;;;;4346794;33;19943;-80
2022/10/08 07:15:16;;;;;;;;;;;;;;;;;;4347092;33;20301;-81
2022/10/08 07:17:41;;;;;;;;;;;;;;;;;;4347202;33;20003;-80
2022/10/08 07:20:11;;;;;;;;;;;;;;;;;;4346834;33;20297;-80
2022/10/08 07:22:57;;;;;;;;;;;;;;;;;;4346658;33;19939;-80
2022/10/08 07:25:24;;;;;;;;;;;;;;;;;;4346611;33;19935;-80
2022/10/08 07:27:49;;;;;;;;;;;;;;;;;;4347243;33;20383;-80
2022/10/08 07:30:15;;;;;;;;;;;;;;;;;;4346216;33;19939;-81
2022/10/08 07:32:40;;;;;;;;;;;;;;;;;;4332756;33;19945;-80
2022/10/08 07:35:05;;;;;;;;;;;;;;;;;;4332741;33;19977;-80
2022/10/08 07:37:30;;;;;;;;;;;;;;;;;;4333224;33;19942;-81
2022/10/08 07:39:55;;;;;;;;;;;;;;;;;;4346030;33;19981;-80
2022/10/08 07:42:20;;;;;;;;;;;;;;;;;;4346468;33;19934;-80
2022/10/08 07:44:49;;;;;;;;;;;;;;;;;;4346456;33;20281;-81
2022/10/08 07:47:14;;;;;;;;;;;;;;;;;;4332766;33;21143;-81
2022/10/08 07:49:39;;;;;;;;;;;;;;;;;;4347302;33;19947;-80
2022/10/08 07:52:07;;;;;;;;;;;;;;;;;;4346418;33;19934;-80
2022/10/08 07:54:39;;;;;;;;;;;;;;;;;;4345964;33;19946;-79
2022/10/08 07:57:04;;;;;;;;;;;;;;;;;;4346831;33;19980;-79
2022/10/08 07:59:30;;;;;;;;;;;;;;;;;;4346038;33;19955;-79
2022/10/08 08:01:55;;;;;;;;;;;;;;;;;;4345570;33;19938;-79
2022/10/08 08:04:20;;;;;;;;;;;;;;;;;;4332862;33;19962;-79
2022/10/08 08:06:51;;;;;;;;;;;;;;;;;;4345829;33;19953;-78
2022/10/08 08:09:17;;;;;;;;;;;;;;;;;;4345753;33;20002;-79
2022/10/08 08:11:42;;;;;;;;;;;;;;;;;;4346606;33;19977;-79
2022/10/08 08:14:07;;;;;;;;;;;;;;;;;;4345830;33;19947;-79
2022/10/08 08:16:33;;;;;;;;;;;;;;;;;;4345331;33;19942;-79
2022/10/08 08:19:17;;;;;;;;;;;;;;;;;;;;;
2022/10/08 08:21:46;;;;;;;;;;;;;;;;;;4345820;33;19950;-78
2022/10/08 08:24:15;;;;;;;;;;;;;;;;;;4345852;33;20340;-78
2022/10/08 08:35:39;;;;;;;;;;;;;;;;;;4292350;33;19946;-79
2022/10/08 08:38:06;;;;;;;;;;;;;;;;;;4314215;33;19970;-78
2022/10/08 08:41:19;;;;;;;;;;;;;;;;;;4328124;33;19999;-78
2022/10/08 08:43:19;;;;;;;;;;;;;;;;;;4339442;33;19938;-78
2022/10/08 08:45:44;;;;;;;;;;;;;;;;;;4345303;33;20324;-78
2022/10/08 08:48:12;;;;;;;;;;;;;;;;;;4346000;33;19938;-78
2022/10/08 08:50:37;;;;;;;;;;;;;;;;;;4332701;33;20049;-78
2022/10/08 08:53:03;;;;;;;;;;;;;;;;;;4345329;33;19943;-78
2022/10/08 08:55:28;;;;;;;;;;;;;;;;;;4345616;33;19950;-78
2022/10/08 08:57:53;;;;;;;;;;;;;;;;;;4345792;33;19963;-78
2022/10/08 09:00:18;;;;;;;;;;;;;;;;;;4345527;33;19977;-78
2022/10/08 09:02:43;;;;;;;;;;;;;;;;;;4332203;33;20364;-77
2022/10/08 09:05:10;;;;;;;;;;;;;;;;;;4345370;33;19935;-78
2022/10/08 09:07:35;;;;;;;;;;;;;;;;;;4345183;33;19953;-77
2022/10/08 09:10:04;;;;;;;;;;;;;;;;;;4344939;33;19954;-77
2022/10/08 09:12:29;;;;;;;;;;;;;;;;;;4331466;33;19935;-79
2022/10/08 09:14:54;;;;;;;;;;;;;;;;;;4345495;33;19946;-79
2022/10/08 09:17:19;;;;;;;;;;;;;;;;;;4345361;33;20306;-80
2022/10/08 09:19:45;;;;;;;;;;;;;;;;;;4345191;33;19938;-78
2022/10/08 09:22:10;;;;;;;;;;;;;;;;;;4344915;33;20296;-78
2022/10/08 09:24:35;;;;;;;;;;;;;;;;;;4344643;33;20301;-78
2022/10/08 09:27:00;;;;;;;;;;;;;;;;;;4347370;33;19951;-78
2022/10/08 09:29:25;;;;;;;;;;;;;;;;;;4347782;33;19958;-78
2022/10/08 09:31:51;;;;;;;;;;;;;;;;;;4346128;33;19953;-78
2022/10/08 09:34:16;;;;;;;;;;;;;;;;;;4341552;33;19947;-78
2022/10/08 09:36:41;;;;;;;;;;;;;;;;;;4347988;33;19939;-78
2022/10/08 09:39:09;;;;;;;;;;;;;;;;;;4347876;33;20235;-78
2022/10/08 09:41:35;;;;;;;;;;;;;;;;;;4347591;33;19974;-78
2022/10/08 09:44:00;;;;;;;;;;;;;;;;;;4333997;33;19993;-78
2022/10/08 09:46:25;;;;;;;;;;;;;;;;;;4348085;33;19939;-78
2022/10/08 09:48:50;;;;;;;;;;;;;;;;;;4347930;33;19946;-77
2022/10/08 09:51:15;;;;;;;;;;;;;;;;;;4334743;33;19947;-77
2022/10/08 09:53:41;;;;;;;;;;;;;;;;;;4348142;33;19981;-79
2022/10/08 09:56:06;;;;;;;;;;;;;;;;;;4347423;33;19938;-79
2022/10/08 09:58:31;;;;;;;;;;;;;;;;;;4334085;33;20010;-77
2022/10/08 10:00:56;;;;;;;;;;;;;;;;;;4333286;33;19957;-79
2022/10/08 10:03:21;;;;;;;;;;;;;;;;;;4347693;33;19939;-79
2022/10/08 10:05:46;;;;;;;;;;;;;;;;;;4347504;33;19954;-78
2022/10/08 10:08:12;;;;;;;;;;;;;;;;;;4347267;33;19935;-79
2022/10/08 10:10:39;;;;;;;;;;;;;;;;;;4347425;33;19943;-78
2022/10/08 10:13:05;;;;;;;;;;;;;;;;;;4347467;33;19982;-78
2022/10/08 10:15:32;;;;;;;;;;;;;;;;;;4348235;33;19954;-78
2022/10/08 10:17:57;;;;;;;;;;;;;;;;;;4347272;33;20321;-78
2022/10/08 10:20:22;;;;;;;;;;;;;;;;;;4347382;33;19949;-78
2022/10/08 10:22:48;;;;;;;;;;;;;;;;;;4334143;33;19939;-78
2022/10/08 10:25:13;;;;;;;;;;;;;;;;;;4346542;33;19974;-77
2022/10/08 10:27:40;;;;;;;;;;;;;;;;;;4346677;33;20273;-77
2022/10/08 10:30:11;;;;;;;;;;;;;;;;;;4346505;33;19947;-78
2022/10/08 10:32:40;;;;;;;;;;;;;;;;;;4346394;33;19992;-77
2022/10/08 10:37:51;;;;;;;;;;;;;;;;;;4342270;33;19993;-77
2022/10/08 10:40:16;;;;;;;;;;;;;;;;;;4346326;33;20325;-77
2022/10/08 10:42:47;;;;;;;;;;;;;;;;;;4346148;33;20351;-78
2022/10/08 10:45:12;;;;;;;;;;;;;;;;;;4345994;33;19986;-77
2022/10/08 10:47:37;;;;;;;;;;;;;;;;;;4345237;33;20305;-77
2022/10/08 10:50:05;;;;;;;;;;;;;;;;;;4344936;33;20364;-77
2022/10/08 10:52:33;;;;;;;;;;;;;;;;;;4342851;33;19950;-77
2022/10/08 10:54:58;;;;;;;;;;;;;;;;;;4316584;33;19959;-77
2022/10/08 10:57:23;;;;;;;;;;;;;;;;;;4330120;33;19986;-77
2022/10/08 10:59:54;;;;;;;;;;;;;;;;;;4316115;33;19979;-78
2022/10/08 11:02:19;;;;;;;;;;;;;;;;;;4330356;33;20009;-79
2022/10/08 11:04:44;;;;;;;;;;;;;;;;;;4330223;33;20364;-78
2022/10/08 11:07:09;;;;;;;;;;;;;;;;;;4331966;33;19953;-77
2022/10/08 11:09:34;;;;;;;;;;;;;;;;;;4342508;33;19982;-77
2022/10/08 11:12:02;;;;;;;;;;;;;;;;;;4347071;33;19954;-77
2022/10/08 11:14:30;;;;;;;;;;;;;;;;;;4346740;33;19957;-77
2022/10/08 11:16:55;;;;;;;;;;;;;;;;;;4346404;33;19985;-77
2022/10/08 11:19:20;;;;;;;;;;;;;;;;;;4346633;33;19955;-77
2022/10/08 11:21:45;;;;;;;;;;;;;;;;;;4346720;33;19935;-77
2022/10/08 11:24:13;;;;;;;;;;;;;;;;;;4347003;33;19947;-76
2022/10/08 11:29:25;;;;;;;;;;;;;;;;;;4347241;33;20332;-77
2022/10/08 11:31:51;;;;;;;;;;;;;;;;;;4346188;33;20284;-77
2022/10/08 11:34:16;;;;;;;;;;;;;;;;;;4346363;33;19939;-76
2022/10/08 11:36:41;;;;;;;;;;;;;;;;;;4346432;33;19950;-76
2022/10/08 11:39:06;;;;;;;;;;;;;;;;;;4347221;33;19965;-77
2022/10/08 11:41:31;;;;;;;;;;;;;;;;;;4346474;33;19968;-77
2022/10/08 11:43:56;;;;;;;;;;;;;;;;;;4346649;33;19943;-77
2022/10/08 11:46:27;;;;;;;;;;;;;;;;;;4345983;33;19957;-76
2022/10/08 11:48:52;;;;;;;;;;;;;;;;;;4346258;33;19954;-77
2022/10/08 11:51:20;;;;;;;;;;;;;;;;;;4346063;33;19939;-76
2022/10/08 11:53:46;;;;;;;;;;;;;;;;;;4345835;33;19957;-78
2022/10/08 11:56:11;;;;;;;;;;;;;;;;;;4332443;33;19946;-78
2022/10/08 11:58:36;;;;;;;;;;;;;;;;;;4344431;33;19998;-77
2022/10/08 12:01:02;;;;;;;;;;;;;;;;;;4350775;32;19958;-76
2022/10/08 12:03:28;;;;;;;;;;;;;;;;;;4349912;32;19935;-76
2022/10/08 12:05:54;;;;;;;;;;;;;;;;;;4356558;32;19943;-76
2022/10/08 12:08:19;;;;;;;;;;;;;;;;;;4352553;32;19997;-76
2022/10/08 12:10:44;;;;;;;;;;;;;;;;;;4349381;32;19978;-77
2022/10/08 12:13:12;;;;;;;;;;;;;;;;;;4356362;33;19947;-77
2022/10/08 12:15:41;;;;;;;;;;;;;;;;;;4357376;33;20333;-76
2022/10/08 12:18:06;;;;;;;;;;;;;;;;;;4335602;33;19962;-76
2022/10/08 12:20:32;;;;;;;;;;;;;;;;;;4350474;33;20024;-76
2022/10/08 12:22:57;;;;;;;;;;;;;;;;;;4347116;33;19994;-77
2022/10/08 12:25:23;;;;;;;;;;;;;;;;;;4341571;33;20317;-78
2022/10/08 12:27:48;;;;;;;;;;;;;;;;;;4349645;32;20064;-78
2022/10/08 12:30:15;;;;;;;;;;;;;;;;;;4350148;32;20321;-78
2022/10/08 12:32:40;;;;;;;;;;;;;;;;;;4353044;33;19982;-79
2022/10/08 12:35:13;;;;;;;;;;;;;;;;;;4356275;32;19981;-79
2022/10/08 12:37:38;;;;;;;;;;;;;;;;;;4353693;33;20296;-78
2022/10/08 12:40:04;;;;;;;;;;;;;;;;;;4340326;33;19943;-78
2022/10/08 12:42:29;;;;;;;;;;;;;;;;;;4350281;33;20313;-77
2022/10/08 12:44:54;;;;;;;;;;;;;;;;;;4349694;33;20329;-78
2022/10/08 12:47:19;;;;;;;;;;;;;;;;;;4351694;33;20407;-78
2022/10/08 12:49:44;;;;;;;;;;;;;;;;;;4344810;33;19982;-78
2022/10/08 12:52:09;;;;;;;;;;;;;;;;;;4344010;33;20317;-77
2022/10/08 12:54:35;;;;;;;;;;;;;;;;;;4343224;33;20415;-78
2022/10/08 12:57:00;;;;;;;;;;;;;;;;;;4344071;33;19947;-78
2022/10/08 12:59:25;;;;;;;;;;;;;;;;;;4344107;33;20388;-77
2022/10/08 13:01:50;;;;;;;;;;;;;;;;;;4346256;33;20277;-77
2022/10/08 13:04:16;;;;;;;;;;;;;;;;;;4349311;33;20351;-77
2022/10/08 13:06:41;;;;;;;;;;;;;;;;;;4348321;33;19943;-77
2022/10/08 13:09:06;;;;;;;;;;;;;;;;;;4348475;33;19934;-77
2022/10/08 13:11:32;;;;;;;;;;;;;;;;;;4334996;33;19982;-77
2022/10/08 13:13:58;;;;;;;;;;;;;;;;;;4348516;33;19981;-78
2022/10/08 13:16:23;;;;;;;;;;;;;;;;;;4348963;33;19947;-77
2022/10/08 13:18:48;;;;;;;;;;;;;;;;;;4348097;33;19953;-76
2022/10/08 13:21:13;;;;;;;;;;;;;;;;;;4348481;33;19972;-77
2022/10/08 13:23:38;;;;;;;;;;;;;;;;;;4334510;33;19973;-77
2022/10/08 13:26:03;;;;;;;;;;;;;;;;;;4334598;33;19938;-77
2022/10/08 13:28:29;;;;;;;;;;;;;;;;;;4347916;33;19943;-77
2022/10/08 13:30:54;;;;;;;;;;;;;;;;;;4348152;33;20009;-77
2022/10/08 13:33:19;;;;;;;;;;;;;;;;;;4347586;33;19990;-78
2022/10/08 13:35:44;;;;;;;;;;;;;;;;;;4348044;33;19974;-77
2022/10/08 13:38:10;;;;;;;;;;;;;;;;;;4334649;33;19977;-79
2022/10/08 13:40:36;;;;;;;;;;;;;;;;;;4347680;33;19953;-78
2022/10/08 13:43:01;;;;;;;;;;;;;;;;;;4346943;33;19939;-79
2022/10/08 13:45:29;;;;;;;;;;;;;;;;;;4347328;33;19998;-78
2022/10/08 13:47:57;;;;;;;;;;;;;;;;;;4347397;33;19949;-79
2022/10/08 13:50:25;;;;;;;;;;;;;;;;;;4347910;33;19958;-79
2022/10/08 13:52:53;;;;;;;;;;;;;;;;;;4337263;33;20323;-78
2022/10/08 13:55:18;;;;;;;;;;;;;;;;;;4333631;33;19949;-77
2022/10/08 13:57:43;;;;;;;;;;;;;;;;;;4336090;33;19938;-79
2022/10/08 14:00:08;;;;;;;;;;;;;;;;;;4332502;33;20283;-79
2022/10/08 14:02:36;;;;;;;;;;;;;;;;;;4333171;33;19970;-80
2022/10/08 14:05:01;;;;;;;;;;;;;;;;;;4333561;33;19973;-79
2022/10/08 14:07:26;;;;;;;;;;;;;;;;;;4333004;33;20313;-78
2022/10/08 14:09:52;;;;;;;;;;;;;;;;;;4333150;33;19969;-79
2022/10/08 14:12:17;;;;;;;;;;;;;;;;;;4332276;33;19954;-78
2022/10/08 14:14:42;;;;;;;;;;;;;;;;;;4332502;33;19935;-78
2022/10/08 14:17:07;;;;;;;;;;;;;;;;;;4319225;33;19954;-77
2022/10/08 14:19:32;;;;;;;;;;;;;;;;;;4333557;33;19985;-77
2022/10/08 14:21:57;;;;;;;;;;;;;;;;;;4332478;33;19935;-78
2022/10/08 14:24:23;;;;;;;;;;;;;;;;;;4319582;33;19950;-77
2022/10/08 14:26:48;;;;;;;;;;;;;;;;;;4332975;33;19954;-78
2022/10/08 14:29:13;;;;;;;;;;;;;;;;;;4332296;33;19935;-78
2022/10/08 14:31:39;;;;;;;;;;;;;;;;;;4332295;33;20370;-78
2022/10/08 14:34:04;;;;;;;;;;;;;;;;;;4326048;33;19943;-77
2022/10/08 14:36:29;;;;;;;;;;;;;;;;;;4346693;33;19941;-78
2022/10/08 14:38:54;;;;;;;;;;;;;;;;;;4319677;33;20384;-79
2022/10/08 14:41:19;;;;;;;;;;;;;;;;;;4332372;33;19954;-78
2022/10/08 14:43:44;;;;;;;;;;;;;;;;;;4332957;33;20013;-77
2022/10/08 14:46:10;;;;;;;;;;;;;;;;;;4332283;33;19957;-77
2022/10/08 14:48:35;;;;;;;;;;;;;;;;;;4342857;33;19993;-76
2022/10/08 14:51:00;;;;;;;;;;;;;;;;;;4347093;33;19953;-76
2022/10/08 14:53:25;;;;;;;;;;;;;;;;;;4349311;33;20324;-77
2022/10/08 14:55:50;;;;;;;;;;;;;;;;;;4347153;32;19981;-76
2022/10/08 14:58:15;;;;;;;;;;;;;;;;;;4357467;32;20312;-77
2022/10/08 15:00:40;;;;;;;;;;;;;;;;;;4353833;32;19953;-77
2022/10/08 15:03:06;;;;;;;;;;;;;;;;;;4361967;32;19992;-77
2022/10/08 15:05:31;;;;;;;;;;;;;;;;;;4361097;32;19953;-77
2022/10/08 15:07:56;;;;;;;;;;;;;;;;;;4361575;32;19938;-77
2022/10/08 15:10:21;;;;;;;;;;;;;;;;;;4361535;32;20301;-77
2022/10/08 15:12:46;;;;;;;;;;;;;;;;;;4344939;33;19953;-77
2022/10/08 15:15:11;;;;;;;;;;;;;;;;;;4346368;33;20000;-77
2022/10/08 15:17:37;;;;;;;;;;;;;;;;;;4346023;33;19934;-77
2022/10/08 15:20:02;;;;;;;;;;;;;;;;;;4346548;33;19943;-77
2022/10/08 15:22:27;;;;;;;;;;;;;;;;;;4346135;33;19942;-77
2022/10/08 15:24:52;;;;;;;;;;;;;;;;;;4346964;33;19953;-77
2022/10/08 15:27:17;;;;;;;;;;;;;;;;;;4346999;33;19934;-77
2022/10/08 15:29:42;;;;;;;;;;;;;;;;;;4346530;33;20835;-77
2022/10/08 15:32:07;;;;;;;;;;;;;;;;;;4345779;33;19951;-77
2022/10/08 15:34:33;;;;;;;;;;;;;;;;;;4351463;33;19954;-77
2022/10/08 15:36:58;;;;;;;;;;;;;;;;;;4359334;32;19964;-77
2022/10/08 15:39:23;;;;;;;;;;;;;;;;;;4358765;32;19950;-77
2022/10/08 15:41:48;;;;;;;;;;;;;;;;;;4359690;32;19980;-78
2022/10/08 15:44:13;;;;;;;;;;;;;;;;;;4358323;32;20360;-77
2022/10/08 15:46:39;;;;;;;;;;;;;;;;;;4346068;32;19977;-77
2022/10/08 15:49:04;;;;;;;;;;;;;;;;;;4345935;33;20020;-77
2022/10/08 15:51:29;;;;;;;;;;;;;;;;;;4346301;33;19943;-77
2022/10/08 15:53:54;;;;;;;;;;;;;;;;;;4345753;33;19966;-78
2022/10/08 15:56:19;;;;;;;;;;;;;;;;;;4326313;33;19943;-77
2022/10/08 15:58:45;;;;;;;;;;;;;;;;;;4333726;33;20012;-76
2022/10/08 16:01:10;;;;;;;;;;;;;;;;;;4346394;33;20008;-76
2022/10/08 16:03:35;;;;;;;;;;;;;;;;;;4345716;33;19943;-77
2022/10/08 16:06:01;;;;;;;;;;;;;;;;;;4332937;33;19946;-78
2022/10/08 16:08:26;;;;;;;;;;;;;;;;;;4332998;33;20277;-77
2022/10/08 16:10:51;;;;;;;;;;;;;;;;;;4345946;33;19949;-78
2022/10/08 16:13:16;;;;;;;;;;;;;;;;;;4347351;33;19950;-77
2022/10/08 16:15:41;;;;;;;;;;;;;;;;;;4346138;33;19939;-78
2022/10/08 16:18:06;;;;;;;;;;;;;;;;;;4345955;33;19939;-78
2022/10/08 16:20:31;;;;;;;;;;;;;;;;;;4345498;33;19939;-78
2022/10/08 16:23:00;;;;;;;;;;;;;;;;;;4346215;33;19939;-78
2022/10/08 16:25:25;;;;;;;;;;;;;;;;;;4346043;33;20008;-78
2022/10/08 16:27:50;;;;;;;;;;;;;;;;;;4345465;33;19939;-77
2022/10/08 16:30:15;;;;;;;;;;;;;;;;;;4345767;33;19986;-77
2022/10/08 16:32:40;;;;;;;;;;;;;;;;;;4345925;33;20355;-77
2022/10/08 16:35:14;;;;;;;;;;;;;;;;;;4346052;33;19935;-77
2022/10/08 16:37:39;;;;;;;;;;;;;;;;;;4346170;33;19935;-77
2022/10/08 16:40:08;;;;;;;;;;;;;;;;;;4345209;33;20381;-77
2022/10/08 16:42:33;;;;;;;;;;;;;;;;;;4345722;33;19942;-76
2022/10/08 16:44:58;;;;;;;;;;;;;;;;;;4345734;33;19969;-77
2022/10/08 16:47:23;;;;;;;;;;;;;;;;;;4345805;33;20361;-77
2022/10/08 16:49:48;;;;;;;;;;;;;;;;;;4346018;33;20223;-78
2022/10/08 16:52:13;;;;;;;;;;;;;;;;;;4345878;33;20284;-77
2022/10/08 16:54:39;;;;;;;;;;;;;;;;;;4331916;33;19938;-77
2022/10/08 16:57:04;;;;;;;;;;;;;;;;;;4345373;33;20109;-77
2022/10/08 16:59:29;;;;;;;;;;;;;;;;;;4345328;33;20281;-77
2022/10/08 17:02:03;;;;;;;;;;;;;;;;;;4344854;33;19994;-78